Time;durP1;ratioP1;P1;durP2;ratioP2;P2;SDS_P1;SDS_P2;PMS_P1;PMS_P2;Temp;Humidity;BMP_temperature;BMP_pressure;BME280_temperature;BME280_humidity;BME280_pressure;Samples;Min_cycle;Max_cycle;Signal;HPM_P1;HPM_P2
2022/05/27 00:01:35;;;;;;;0.70;0.70;;;5.40;99.90;;;;;;5061574;28;20193;-85
2022/05/27 00:04:04;;;;;;;0.70;0.70;;;5.40;99.90;;;;;;5062054;28;20291;-86
2022/05/27 00:06:31;;;;;;;0.70;0.70;;;5.40;99.90;;;;;;5061265;28;20675;-86
2022/05/27 00:08:57;;;;;;;0.60;0.60;;;5.40;99.90;;;;;;5058441;28;20217;-86
2022/05/27 00:11:24;;;;;;;0.75;0.75;;;5.30;99.90;;;;;;5058395;28;20197;-86
2022/05/27 00:13:51;;;;;;;0.80;0.80;;;5.30;99.90;;;;;;5078207;28;20202;-86
2022/05/27 00:17:10;;;;;;;0.70;0.70;;;5.20;99.90;;;;;;5057579;28;20576;-85
2022/05/27 00:19:37;;;;;;;0.70;0.70;;;5.20;99.90;;;;;;4997091;28;20247;-85
2022/05/27 00:22:12;;;;;;;0.80;0.80;;;5.10;99.90;;;;;;4997777;28;20203;-87
2022/05/27 00:24:38;;;;;;;1.50;1.40;;;5.10;99.90;;;;;;5036392;28;20594;-86
2022/05/27 00:27:25;;;;;;;0.90;0.90;;;5.10;99.90;;;;;;5059485;28;20276;-86
2022/05/27 00:29:50;;;;;;;0.68;0.68;;;5.00;99.90;;;;;;5025307;28;20205;-86
2022/05/27 00:32:16;;;;;;;5.35;1.65;;;5.00;99.90;;;;;;5041274;28;20618;-85
2022/05/27 00:34:42;;;;;;;1.42;1.33;;;5.00;99.90;;;;;;5041031;28;20200;-86
2022/05/27 00:37:07;;;;;;;0.68;0.68;;;4.90;99.90;;;;;;5041044;28;20208;-85
2022/05/27 00:39:34;;;;;;;0.70;0.70;;;4.90;99.90;;;;;;5040824;28;20264;-86
2022/05/27 00:42:00;;;;;;;0.70;0.70;;;4.90;99.90;;;;;;5041075;28;20194;-86
2022/05/27 00:44:46;;;;;;;0.80;0.80;;;4.80;99.90;;;;;;5039289;28;20590;-88
2022/05/27 00:47:17;;;;;;;0.90;0.90;;;4.80;99.90;;;;;;5039767;28;20190;-86
2022/05/27 00:52:37;;;;;;;0.77;0.77;;;4.80;99.90;;;;;;5058311;28;20251;-87
2022/05/27 00:55:21;;;;;;;0.80;0.80;;;4.80;99.90;;;;;;5040624;28;20309;-87
2022/05/27 00:57:53;;;;;;;0.80;0.80;;;4.70;99.90;;;;;;5058264;28;20294;-87
2022/05/27 01:00:22;;;;;;;0.70;0.70;;;4.70;99.90;;;;;;5040642;28;20550;-89
2022/05/27 01:02:48;;;;;;;8.90;1.48;;;4.70;99.90;;;;;;5047200;28;20197;-91
2022/05/27 01:05:20;;;;;;;0.75;0.75;;;4.70;99.90;;;;;;5048135;28;20224;-90
2022/05/27 01:07:46;;;;;;;0.80;0.80;;;4.60;99.90;;;;;;5047621;28;20209;-89
2022/05/27 01:10:16;;;;;;;0.80;0.80;;;4.60;99.90;;;;;;5046743;28;20198;-91
2022/05/27 01:13:04;;;;;;;0.70;0.70;;;4.60;99.90;;;;;;5046921;28;20676;-91
2022/05/27 01:15:58;;;;;;;7.53;2.45;;;4.50;99.90;;;;;;5046316;28;20198;-91
2022/05/27 01:21:48;;;;;;;0.68;0.68;;;4.50;99.90;;;;;;5083144;28;20231;-91
2022/05/27 01:24:34;;;;;;;2.15;1.92;;;4.50;99.90;;;;;;5065144;28;20220;-91
2022/05/27 01:27:50;;;;;;;0.98;0.98;;;4.50;99.90;;;;;;5066148;28;20204;-90
2022/05/27 01:30:35;;;;;;;0.80;0.80;;;4.50;99.90;;;;;;5067367;28;20665;-89
2022/05/27 01:33:09;;;;;;;3.28;2.65;;;4.50;99.90;;;;;;5077358;28;20193;-89
2022/05/27 01:35:46;;;;;;;3.03;2.80;;;4.40;99.90;;;;;;5060414;28;20201;-89
2022/05/27 01:38:20;;;;;;;5.13;2.50;;;4.40;99.90;;;;;;5062752;28;20573;-90
2022/05/27 01:41:02;;;;;;;1.38;1.27;;;4.40;99.90;;;;;;5062644;28;20644;-89
2022/05/27 01:43:49;;;;;;;1.55;1.45;;;4.30;99.90;;;;;;5062316;28;20194;-91
2022/05/27 01:46:22;;;;;;;0.70;0.70;;;4.30;99.90;;;;;;5062338;28;20194;-91
2022/05/27 01:49:14;;;;;;;1.08;1.08;;;4.30;99.90;;;;;;5065249;28;20201;-91
2022/05/27 01:52:20;;;;;;;1.98;1.73;;;4.50;99.90;;;;;;5065711;28;20200;-91
2022/05/27 01:55:07;;;;;;;0.77;0.77;;;4.60;99.90;;;;;;4985924;28;20195;-93
2022/05/27 01:57:50;;;;;;;1.38;1.27;;;4.50;99.90;;;;;;4988264;28;20294;-93
2022/05/27 02:00:22;;;;;;;1.95;1.85;;;4.60;99.90;;;;;;4977384;28;20208;-91
2022/05/27 02:02:52;;;;;;;5.88;2.17;;;4.60;99.90;;;;;;4968863;28;20305;-92
2022/05/27 02:05:25;;;;;;;0.90;0.90;;;4.50;99.90;;;;;;4969978;28;20220;-91
2022/05/27 02:08:05;;;;;;;2.72;2.28;;;4.50;99.90;;;;;;4971015;28;20201;-91
2022/05/27 02:10:39;;;;;;;9.80;6.40;;;4.50;99.90;;;;;;4970368;28;20200;-92
2022/05/27 02:13:16;;;;;;;2.97;2.75;;;4.50;99.90;;;;;;4970133;28;20203;-90
2022/05/27 02:15:45;;;;;;;3.38;3.08;;;4.40;99.90;;;;;;4970265;28;20707;-91
2022/05/27 02:18:26;;;;;;;5.60;2.72;;;4.40;99.90;;;;;;4970052;28;20312;-91
2022/05/27 02:21:07;;;;;;;1.80;1.70;;;4.30;99.90;;;;;;4950559;29;20217;-89
2022/05/27 02:23:40;;;;;;;4.78;3.10;;;4.30;99.90;;;;;;4950686;29;20208;-92
2022/05/27 02:26:12;;;;;;;2.05;1.85;;;4.30;99.90;;;;;;4951131;29;20209;-91
2022/05/27 02:28:42;;;;;;;0.80;0.80;;;4.30;99.90;;;;;;5000481;28;20245;-91
2022/05/27 02:31:14;;;;;;;0.80;0.80;;;4.30;99.90;;;;;;5048824;28;20193;-90
2022/05/27 02:36:36;;;;;;;1.10;1.00;;;4.30;99.90;;;;;;5046954;28;20264;-91
2022/05/27 02:39:04;;;;;;;0.80;0.80;;;4.40;99.90;;;;;;5029232;28;20253;-91
2022/05/27 02:41:45;;;;;;;4.80;1.85;;;4.40;99.90;;;;;;5045217;28;20653;-91
2022/05/27 02:44:26;;;;;;;0.90;0.90;;;4.50;99.90;;;;;;5046637;28;20204;-89
2022/05/27 02:47:13;;;;;;;1.10;1.00;;;4.50;99.90;;;;;;5045029;28;20657;-91
2022/05/27 02:50:10;;;;;;;0.70;0.70;;;4.40;99.90;;;;;;5045978;28;20194;-92
2022/05/27 02:52:35;;;;;;;0.63;0.63;;;4.50;99.90;;;;;;5045659;28;20202;-91
2022/05/27 02:55:37;;;;;;;1.42;1.17;;;4.50;99.90;;;;;;5045253;28;20205;-90
2022/05/27 02:58:03;;;;;;;0.70;0.70;;;4.50;99.90;;;;;;5045749;28;20197;-91
2022/05/27 03:00:39;;;;;;;0.68;0.68;;;4.50;99.90;;;;;;5058490;28;20267;-91
2022/05/27 03:03:05;;;;;;;1.00;1.00;;;4.40;99.90;;;;;;5048090;28;20197;-90
2022/05/27 03:06:08;;;;;;;1.05;1.05;;;4.50;99.90;;;;;;5046663;28;20665;-90
2022/05/27 03:08:37;;;;;;;0.90;0.90;;;4.50;99.90;;;;;;5014702;28;20786;-90
2022/05/27 03:11:09;;;;;;;0.70;0.70;;;4.50;99.90;;;;;;5065104;28;20346;-91
2022/05/27 03:13:53;;;;;;;0.70;0.70;;;4.50;99.90;;;;;;5065734;28;20212;-90
2022/05/27 03:16:44;;;;;;;0.80;0.80;;;4.40;99.90;;;;;;5048307;28;20205;-90
2022/05/27 03:19:41;;;;;;;2.03;1.38;;;4.40;99.90;;;;;;5072907;28;20584;-91
2022/05/27 03:22:37;;;;;;;0.98;0.98;;;4.40;99.90;;;;;;5068831;28;20193;-91
2022/05/27 03:25:08;;;;;;;0.73;0.73;;;4.40;99.90;;;;;;5068867;28;20208;-91
2022/05/27 03:28:12;;;;;;;0.70;0.70;;;4.40;99.90;;;;;;5068380;28;20674;-92
2022/05/27 03:31:00;;;;;;;0.98;0.98;;;4.50;99.90;;;;;;5069412;28;20566;-92
2022/05/27 03:33:29;;;;;;;0.80;0.80;;;4.70;99.90;;;;;;5065175;28;20540;-90
2022/05/27 03:36:05;;;;;;;0.88;0.88;;;4.80;99.90;;;;;;5065952;28;20561;-90
2022/05/27 03:38:59;;;;;;;0.60;0.60;;;5.00;99.90;;;;;;5065605;28;20201;-91
2022/05/27 03:41:30;;;;;;;2.50;1.17;;;5.20;99.90;;;;;;5047834;28;20288;-92
2022/05/27 03:43:56;;;;;;;0.70;0.70;;;5.40;99.90;;;;;;5065371;28;20197;-93
2022/05/27 03:46:40;;;;;;;0.77;0.77;;;5.50;99.90;;;;;;5066015;28;20236;-91
2022/05/27 03:49:07;;;;;;;0.70;0.70;;;5.70;99.90;;;;;;5066457;28;20201;-91
2022/05/27 03:51:43;;;;;;;0.70;0.70;;;5.80;99.90;;;;;;5065528;28;20202;-92
2022/05/27 03:54:11;;;;;;;0.70;0.70;;;6.00;99.90;;;;;;5065752;28;20190;-91
2022/05/27 03:56:42;;;;;;;0.70;0.70;;;6.00;99.90;;;;;;5068519;28;20208;-92
2022/05/27 03:59:11;;;;;;;0.70;0.70;;;6.10;99.90;;;;;;5069108;28;20209;-91
2022/05/27 04:01:41;;;;;;;1.98;1.83;;;6.20;99.90;;;;;;5065936;28;20189;-88
2022/05/27 04:04:10;;;;;;;0.80;0.80;;;6.30;99.90;;;;;;5067269;28;20207;-90
2022/05/27 04:06:36;;;;;;;0.70;0.70;;;6.40;99.90;;;;;;5068221;28;20197;-90
2022/05/27 04:09:03;;;;;;;0.70;0.70;;;6.50;99.90;;;;;;5068097;28;20227;-90
2022/05/27 04:11:30;;;;;;;0.73;0.73;;;6.50;99.90;;;;;;5067493;28;20207;-90
2022/05/27 04:13:56;;;;;;;0.70;0.70;;;6.40;99.90;;;;;;5067191;28;20681;-88
2022/05/27 04:16:25;;;;;;;0.70;0.70;;;6.40;99.90;;;;;;5067585;28;20206;-88
2022/05/27 04:18:51;;;;;;;0.70;0.70;;;6.50;99.90;;;;;;5064048;28;20221;-90
2022/05/27 04:21:17;;;;;;;0.68;0.68;;;6.50;99.90;;;;;;5065703;28;20186;-90
2022/05/27 04:23:44;;;;;;;0.70;0.70;;;6.60;99.90;;;;;;5064116;28;20223;-90
2022/05/27 04:26:10;;;;;;;0.70;0.70;;;6.60;99.90;;;;;;5064871;28;20201;-90
2022/05/27 04:28:36;;;;;;;0.70;0.70;;;6.60;99.90;;;;;;5062770;28;20268;-89
2022/05/27 04:31:03;;;;;;;0.70;0.70;;;6.70;99.90;;;;;;5063289;28;20260;-90
2022/05/27 04:33:29;;;;;;;0.60;0.60;;;6.70;99.90;;;;;;5060587;28;20194;-90
2022/05/27 04:35:56;;;;;;;0.70;0.70;;;6.70;99.90;;;;;;5063178;28;20255;-90
2022/05/27 04:38:28;;;;;;;0.70;0.70;;;6.80;99.90;;;;;;5080026;28;20205;-90
2022/05/27 04:40:54;;;;;;;0.70;0.70;;;6.90;99.90;;;;;;5080989;28;20201;-90
2022/05/27 04:43:22;;;;;;;0.70;0.70;;;6.90;99.90;;;;;;5065786;28;20181;-90
2022/05/27 04:45:48;;;;;;;0.70;0.70;;;7.10;99.90;;;;;;5081088;28;20197;-91
2022/05/27 04:48:16;;;;;;;0.60;0.60;;;7.20;99.90;;;;;;5081752;28;20204;-90
2022/05/27 04:50:42;;;;;;;0.70;0.70;;;7.30;99.90;;;;;;5081776;28;20198;-90
2022/05/27 04:53:11;;;;;;;0.70;0.70;;;7.30;99.90;;;;;;5081714;28;20686;-91
2022/05/27 04:55:38;;;;;;;0.70;0.70;;;7.50;99.90;;;;;;5081620;28;20201;-91
2022/05/27 04:58:06;;;;;;;0.70;0.70;;;7.60;99.90;;;;;;5064180;28;20233;-91
2022/05/27 05:00:44;;;;;;;0.60;0.60;;;7.80;99.90;;;;;;5084324;28;20660;-91
2022/05/27 05:03:12;;;;;;;0.70;0.70;;;8.00;99.90;;;;;;5067833;28;20193;-90
2022/05/27 05:05:38;;;;;;;0.70;0.70;;;8.10;99.90;;;;;;5068220;28;20251;-90
2022/05/27 05:08:17;;;;;;;0.70;0.70;;;8.10;99.90;;;;;;5067373;28;20233;-91
2022/05/27 05:10:43;;;;;;;0.63;0.63;;;8.20;99.90;;;;;;5043737;28;20691;-90
2022/05/27 05:13:09;;;;;;;0.70;0.70;;;8.40;99.90;;;;;;5060821;28;20198;-91
2022/05/27 05:15:38;;;;;;;0.70;0.70;;;8.40;99.90;;;;;;5075509;28;20232;-90
2022/05/27 05:18:04;;;;;;;0.68;0.68;;;8.60;99.90;;;;;;5064058;28;20213;-90
2022/05/27 05:20:36;;;;;;;0.60;0.60;;;8.60;99.90;;;;;;5063707;28;20233;-91
2022/05/27 05:23:28;;;;;;;0.65;0.65;;;8.80;99.90;;;;;;5064225;28;20193;-91
2022/05/27 05:26:00;;;;;;;0.70;0.70;;;9.10;99.90;;;;;;5059145;28;20213;-91
2022/05/27 05:28:29;;;;;;;0.70;0.70;;;9.20;99.90;;;;;;5063591;28;20247;-91
2022/05/27 05:30:55;;;;;;;0.70;0.70;;;9.30;99.90;;;;;;5063444;28;20208;-90
2022/05/27 05:33:45;;;;;;;0.70;0.70;;;9.30;99.90;;;;;;5063292;28;20194;-92
2022/05/27 05:36:13;;;;;;;0.90;0.90;;;9.40;99.90;;;;;;5065131;28;20205;-92
2022/05/27 05:38:47;;;;;;;0.60;0.60;;;9.50;99.90;;;;;;5065070;28;20277;-91
2022/05/27 05:41:12;;;;;;;0.90;0.90;;;9.70;99.90;;;;;;5064812;28;20201;-91
2022/05/27 05:43:38;;;;;;;0.60;0.60;;;10.00;99.90;;;;;;5063748;28;20202;-91
2022/05/27 05:46:07;;;;;;;0.60;0.60;;;10.10;99.90;;;;;;5067127;28;20264;-91
2022/05/27 05:48:36;;;;;;;0.60;0.60;;;10.10;99.90;;;;;;5067118;28;20217;-92
2022/05/27 05:51:02;;;;;;;0.60;0.60;;;10.10;99.90;;;;;;5067425;28;20280;-92
2022/05/27 05:53:39;;;;;;;0.60;0.60;;;10.20;99.90;;;;;;5066170;28;20204;-92
2022/05/27 05:56:08;;;;;;;0.50;0.50;;;10.20;99.90;;;;;;5082756;28;20197;-91
2022/05/27 05:58:40;;;;;;;0.60;0.60;;;9.80;99.90;;;;;;5082803;28;20236;-91
2022/05/27 06:01:08;;;;;;;0.50;0.50;;;9.90;99.90;;;;;;5068722;28;20733;-91
2022/05/27 06:03:34;;;;;;;0.60;0.60;;;9.80;99.90;;;;;;5068819;28;20189;-91
2022/05/27 06:06:09;;;;;;;0.60;0.60;;;9.70;99.90;;;;;;5069424;28;20193;-91
2022/05/27 06:09:13;;;;;;;0.70;0.70;;;9.50;99.90;;;;;;5067993;28;20193;-91
2022/05/27 06:12:00;;;;;;;0.60;0.60;;;9.20;99.90;;;;;;5065795;28;20678;-91
2022/05/27 06:14:44;;;;;;;1.02;0.77;;;9.40;99.90;;;;;;5064983;28;20205;-92
2022/05/27 06:17:10;;;;;;;0.65;0.65;;;9.50;99.90;;;;;;5066617;28;20356;-90
2022/05/27 06:19:41;;;;;;;0.70;0.70;;;9.60;99.90;;;;;;5066300;28;20229;-93
2022/05/27 06:22:07;;;;;;;0.60;0.60;;;9.60;99.90;;;;;;5066198;28;20660;-92
2022/05/27 06:24:46;;;;;;;0.60;0.60;;;9.50;99.90;;;;;;5066099;28;20221;-92
2022/05/27 06:27:12;;;;;;;0.50;0.50;;;9.60;99.90;;;;;;5065879;28;20194;-91
2022/05/27 06:35:23;;;;;;;0.60;0.60;;;9.90;99.90;;;;;;5066903;28;20224;-91
2022/05/27 06:37:49;;;;;;;0.70;0.70;;;10.40;99.90;;;;;;5065298;28;20244;-90
2022/05/27 06:44:57;;;;;;;0.57;0.57;;;10.90;99.90;;;;;;4949751;29;20214;-90
2022/05/27 06:48:21;;;;;;;0.60;0.60;;;11.50;99.90;;;;;;4909946;29;20211;-90
2022/05/27 06:50:46;;;;;;;0.55;0.55;;;11.40;99.90;;;;;;4905338;29;20207;-92
2022/05/27 06:53:15;;;;;;;0.57;0.57;;;10.90;99.90;;;;;;4912222;29;20206;-91
2022/05/27 06:55:43;;;;;;;0.75;0.75;;;10.80;99.90;;;;;;4949261;28;20209;-92
2022/05/27 06:58:09;;;;;;;0.60;0.60;;;11.00;99.90;;;;;;4946613;28;20643;-91
2022/05/27 07:00:37;;;;;;;0.60;0.60;;;11.20;99.90;;;;;;4945822;28;20204;-91
2022/05/27 07:03:05;;;;;;;0.50;0.50;;;11.40;99.90;;;;;;4964126;28;20205;-91
2022/05/27 07:05:32;;;;;;;0.60;0.60;;;11.50;99.90;;;;;;4947597;28;20209;-88
2022/05/27 07:07:58;;;;;;;0.50;0.50;;;11.60;99.90;;;;;;4933424;28;20201;-90
2022/05/27 07:10:29;;;;;;;0.60;0.60;;;11.70;99.90;;;;;;4928674;29;20739;-90
2022/05/27 07:12:56;;;;;;;0.50;0.50;;;11.60;99.90;;;;;;4929248;29;20679;-89
2022/05/27 07:15:22;;;;;;;0.70;0.70;;;11.30;99.90;;;;;;4929989;29;20312;-91
2022/05/27 07:18:04;;;;;;;0.57;0.57;;;11.10;99.90;;;;;;4969740;28;20289;-94
2022/05/27 07:20:45;;;;;;;0.60;0.60;;;10.70;99.90;;;;;;5010797;28;20258;-91
2022/05/27 07:23:38;;;;;;;0.55;0.55;;;10.50;99.90;;;;;;5027401;28;20251;-94
2022/05/27 07:26:43;;;;;;;0.60;0.60;;;10.50;99.90;;;;;;5071046;28;20257;-93
2022/05/27 07:29:27;;;;;;;;;;;;;;;;;;;;;
2022/05/27 07:32:10;;;;;;;0.50;0.50;;;10.90;99.90;;;;;;5072691;28;20209;-91
2022/05/27 07:34:41;;;;;;;0.55;0.55;;;11.00;99.90;;;;;;5069893;28;20236;-91
2022/05/27 07:37:32;;;;;;;;;;;;;;;;;;;;;
2022/05/27 07:43:23;;;;;;;0.60;0.60;;;11.80;99.90;;;;;;5065253;28;20205;-93
2022/05/27 07:46:28;;;;;;;;;;;;;;;;;;;;;
2022/05/27 07:49:23;;;;;;;0.47;0.47;;;13.40;99.90;;;;;;5062419;28;20280;-91
2022/05/27 07:52:05;;;;;;;;;;;;;;;;;;;;;
2022/05/27 07:54:47;;;;;;;0.50;0.50;;;13.50;99.90;;;;;;5082617;28;20257;-92
2022/05/27 07:57:29;;;;;;;2.15;1.20;;;12.60;99.90;;;;;;5064027;28;20193;-92
2022/05/27 08:00:12;;;;;;;0.50;0.50;;;12.20;99.90;;;;;;5065718;28;20572;-91
2022/05/27 08:02:41;;;;;;;0.50;0.50;;;11.80;99.90;;;;;;5062361;28;20666;-91
2022/05/27 08:05:16;;;;;;;0.50;0.50;;;11.70;99.90;;;;;;5061209;28;20671;-91
2022/05/27 08:07:54;;;;;;;0.50;0.50;;;11.50;99.90;;;;;;5061499;28;20219;-93
2022/05/27 08:10:40;;;;;;;0.70;0.70;;;11.60;99.90;;;;;;5059385;28;20259;-91
2022/05/27 08:13:11;;;;;;;0.50;0.50;;;11.70;99.90;;;;;;5056908;28;20197;-91
2022/05/27 08:15:45;;;;;;;0.60;0.60;;;11.80;99.90;;;;;;5062335;28;20566;-91
2022/05/27 08:18:49;;;;;;;0.57;0.57;;;11.90;99.90;;;;;;5060753;28;20210;-92
2022/05/27 08:21:15;;;;;;;0.45;0.45;;;11.70;99.90;;;;;;5044131;28;20694;-91
2022/05/27 08:23:49;;;;;;;0.60;0.60;;;11.60;99.90;;;;;;5061702;28;20189;-92
2022/05/27 08:26:24;;;;;;;0.50;0.50;;;11.30;99.90;;;;;;5059186;28;20259;-91
2022/05/27 08:29:03;;;;;;;0.50;0.50;;;11.10;99.90;;;;;;5060042;28;20201;-92
2022/05/27 08:31:50;;;;;;;0.57;0.57;;;11.00;99.90;;;;;;5061525;28;20564;-93
2022/05/27 08:41:28;;;;;;;0.55;0.55;;;12.20;99.90;;;;;;5061205;28;20193;-91
2022/05/27 08:44:24;;;;;;;0.50;0.50;;;11.90;99.90;;;;;;5061126;28;20201;-91
2022/05/27 08:47:17;;;;;;;0.50;0.50;;;11.80;99.90;;;;;;5063499;28;20578;-91
2022/05/27 08:49:48;;;;;;;0.50;0.50;;;11.50;99.90;;;;;;5065354;28;20235;-92
2022/05/27 08:52:28;;;;;;;0.55;0.55;;;11.40;99.90;;;;;;5062578;28;20561;-92
2022/05/27 09:01:50;;;;;;;0.70;0.70;;;11.20;99.90;;;;;;5036220;28;20217;-92
2022/05/27 09:04:48;;;;;;;0.60;0.60;;;11.40;99.90;;;;;;5027231;28;20194;-92
2022/05/27 09:11:43;;;;;;;0.50;0.50;;;12.20;99.90;;;;;;5028419;28;20205;-91
2022/05/27 09:15:01;;;;;;;0.50;0.50;;;12.20;99.90;;;;;;5025167;28;20216;-91
2022/05/27 09:18:16;;;;;;;0.60;0.60;;;12.00;99.90;;;;;;5009414;28;20241;-92
2022/05/27 09:20:49;;;;;;;0.50;0.50;;;11.80;99.90;;;;;;5001448;28;20265;-90
2022/05/27 09:23:24;;;;;;;0.50;0.50;;;11.70;99.90;;;;;;5026462;28;20230;-91
2022/05/27 09:25:55;;;;;;;0.43;0.43;;;11.80;99.90;;;;;;5025894;28;20205;-88
2022/05/27 09:28:46;;;;;;;0.50;0.50;;;11.90;99.90;;;;;;5026131;28;20202;-87
2022/05/27 09:31:15;;;;;;;0.50;0.50;;;11.80;99.90;;;;;;5044098;28;20598;-89
2022/05/27 09:33:43;;;;;;;0.60;0.60;;;11.80;99.90;;;;;;5054799;28;20201;-86
2022/05/27 09:36:25;;;;;;;0.57;0.57;;;11.90;99.90;;;;;;5041433;28;20190;-82
2022/05/27 09:38:56;;;;;;;0.50;0.50;;;12.60;99.90;;;;;;5041505;28;20266;-83
2022/05/27 09:41:50;;;;;;;0.50;0.50;;;13.00;99.90;;;;;;5056368;28;20288;-83
2022/05/27 09:44:31;;;;;;;0.40;0.40;;;13.60;99.90;;;;;;5040738;28;20259;-83
2022/05/27 09:46:57;;;;;;;0.40;0.40;;;14.00;99.90;;;;;;5056793;28;20201;-84
2022/05/27 09:49:23;;;;;;;0.40;0.40;;;14.30;99.90;;;;;;5058255;28;20335;-85
2022/05/27 09:51:51;;;;;;;0.40;0.40;;;14.90;99.90;;;;;;5040174;28;20202;-84
2022/05/27 09:54:20;;;;;;;0.50;0.50;;;14.60;99.90;;;;;;5057589;28;20210;-83
2022/05/27 09:57:23;;;;;;;0.40;0.40;;;14.20;99.90;;;;;;5044274;28;20201;-84
2022/05/27 09:59:57;;;;;;;0.47;0.47;;;13.90;99.90;;;;;;5037987;28;20311;-84
2022/05/27 10:02:28;;;;;;;0.40;0.40;;;14.00;99.90;;;;;;5060102;28;20689;-83
2022/05/27 10:05:01;;;;;;;0.40;0.40;;;14.00;99.90;;;;;;5061033;28;20192;-82
2022/05/27 10:08:02;;;;;;;0.40;0.40;;;14.20;99.90;;;;;;5060360;28;20277;-83
2022/05/27 10:10:37;;;;;;;0.40;0.40;;;14.70;99.90;;;;;;5069012;28;20203;-84
2022/05/27 10:13:18;;;;;;;0.40;0.40;;;14.40;99.90;;;;;;5076675;28;20192;-81
2022/05/27 10:16:11;;;;;;;0.40;0.40;;;14.00;99.90;;;;;;5059563;28;20219;-84
2022/05/27 10:18:44;;;;;;;0.40;0.40;;;14.00;99.90;;;;;;5063260;28;20226;-82
2022/05/27 10:21:19;;;;;;;0.40;0.40;;;14.30;99.90;;;;;;5082065;28;20920;-83
2022/05/27 10:23:48;;;;;;;0.40;0.40;;;14.80;99.90;;;;;;5081707;28;20245;-82
2022/05/27 10:26:35;;;;;;;0.40;0.40;;;14.90;99.90;;;;;;5084187;28;20192;-83
2022/05/27 10:29:19;;;;;;;0.40;0.40;;;15.00;99.90;;;;;;5081252;28;20274;-83
2022/05/27 10:31:53;;;;;;;0.30;0.30;;;14.80;99.90;;;;;;5062609;28;20604;-82
2022/05/27 10:34:41;;;;;;;0.40;0.40;;;14.20;99.90;;;;;;5058113;28;20230;-83
2022/05/27 10:37:39;;;;;;;0.40;0.40;;;14.20;99.90;;;;;;5049705;28;20207;-84
2022/05/27 10:40:27;;;;;;;0.40;0.40;;;14.20;99.90;;;;;;5042834;28;20626;-86
2022/05/27 10:46:04;;;;;;;0.40;0.40;;;15.10;99.90;;;;;;5045949;28;20193;-85
2022/05/27 10:48:45;;;;;;;0.40;0.40;;;15.60;99.90;;;;;;5059264;28;20197;-85
2022/05/27 10:51:30;;;;;;;0.30;0.30;;;15.90;99.90;;;;;;5041782;28;20205;-84
2022/05/27 10:54:07;;;;;;;0.40;0.40;;;15.40;99.90;;;;;;5041639;28;20199;-85
2022/05/27 11:02:04;;;;;;;0.40;0.40;;;14.90;99.90;;;;;;5040976;28;20220;-84
2022/05/27 11:03:36;;;;;;;0.40;0.40;;;14.60;99.90;;;;;;5084126;28;20204;-85
2022/05/27 11:06:27;;;;;;;0.40;0.40;;;15.10;99.90;;;;;;5059886;28;20205;-83
2022/05/27 11:09:06;;;;;;;0.40;0.40;;;15.50;99.90;;;;;;5060662;28;20203;-83
2022/05/27 11:11:40;;;;;;;0.40;0.40;;;15.40;99.90;;;;;;5059651;28;20656;-85
2022/05/27 11:17:26;;;;;;;0.40;0.40;;;14.90;99.90;;;;;;5048362;28;20239;-84
2022/05/27 11:20:08;;;;;;;0.40;0.40;;;14.20;99.90;;;;;;5057399;28;20225;-84
2022/05/27 11:23:35;;;;;;;0.30;0.30;;;14.30;99.90;;;;;;5068502;28;20189;-83
2022/05/27 11:26:28;;;;;;;0.40;0.40;;;14.20;99.90;;;;;;5036393;28;20207;-83
2022/05/27 11:29:31;;;;;;;0.40;0.40;;;13.90;99.90;;;;;;5077213;28;20202;-84
2022/05/27 11:32:09;;;;;;;0.50;0.50;;;13.90;99.90;;;;;;5059447;28;20289;-83
2022/05/27 11:34:43;;;;;;;0.40;0.40;;;13.80;99.90;;;;;;5055417;28;20580;-84
2022/05/27 11:37:27;;;;;;;0.43;0.43;;;13.90;99.90;;;;;;5055901;28;20291;-83
2022/05/27 11:39:58;;;;;;;0.40;0.40;;;14.20;99.90;;;;;;5056892;28;20209;-84
2022/05/27 11:42:52;;;;;;;0.45;0.45;;;13.80;99.90;;;;;;5056762;28;20205;-83
2022/05/27 11:45:28;;;;;;;0.50;0.50;;;13.10;99.90;;;;;;5070021;28;20291;-83
2022/05/27 11:48:27;;;;;;;0.50;0.50;;;12.90;99.90;;;;;;5077209;28;20259;-83
2022/05/27 11:51:08;;;;;;;0.50;0.50;;;12.90;99.90;;;;;;5061186;28;20189;-82
2022/05/27 11:53:45;;;;;;;0.40;0.40;;;13.20;99.90;;;;;;5076807;28;20578;-82
2022/05/27 11:56:21;;;;;;;0.47;0.47;;;13.70;99.90;;;;;;5058609;28;20667;-84
2022/05/27 11:59:04;;;;;;;0.40;0.40;;;14.10;99.90;;;;;;5059222;28;20288;-80
2022/05/27 12:01:49;;;;;;;0.45;0.45;;;14.70;99.90;;;;;;5076340;28;20242;-78
2022/05/27 12:04:38;;;;;;;1.23;0.95;;;14.90;99.90;;;;;;5059278;28;20193;-79
2022/05/27 12:07:36;;;;;;;0.40;0.40;;;15.30;99.90;;;;;;5059313;28;20690;-79
2022/05/27 12:10:43;;;;;;;0.40;0.40;;;14.90;99.90;;;;;;5059127;28;20197;-79
2022/05/27 12:13:37;;;;;;;0.40;0.40;;;14.50;99.90;;;;;;5059745;28;20292;-78
2022/05/27 12:16:28;;;;;;;0.40;0.40;;;14.20;99.90;;;;;;5076988;28;20526;-78
2022/05/27 12:19:01;;;;;;;0.40;0.40;;;14.50;99.90;;;;;;5057272;28;20221;-79
2022/05/27 12:21:35;;;;;;;0.40;0.40;;;14.60;99.90;;;;;;5074404;28;20572;-78
2022/05/27 12:24:12;;;;;;;0.40;0.40;;;15.40;99.90;;;;;;5076175;28;20669;-78
2022/05/27 12:26:38;;;;;;;0.40;0.40;;;14.80;99.90;;;;;;5059039;28;20207;-79
2022/05/27 12:29:08;;;;;;;0.45;0.45;;;14.00;99.90;;;;;;5078285;28;20223;-80
2022/05/27 12:31:35;;;;;;;0.40;0.40;;;14.10;99.90;;;;;;5079210;28;20330;-79
2022/05/27 12:34:26;;;;;;;0.40;0.40;;;14.30;99.90;;;;;;5055807;28;20193;-79
2022/05/27 12:36:58;;;;;;;0.40;0.40;;;14.10;99.90;;;;;;5060382;28;20186;-84
2022/05/27 12:39:26;;;;;;;0.40;0.40;;;14.30;99.90;;;;;;5063516;28;20237;-82
2022/05/27 12:42:11;;;;;;;0.40;0.40;;;14.40;99.90;;;;;;5061161;28;20196;-83
2022/05/27 12:47:34;;;;;;;0.30;0.30;;;14.90;99.90;;;;;;5002058;28;20210;-82
2022/05/27 12:50:17;;;;;;;0.40;0.40;;;15.20;99.90;;;;;;5000510;28;20214;-83
2022/05/27 12:53:10;;;;;;;0.40;0.40;;;14.70;99.90;;;;;;4965426;28;20240;-82
2022/05/27 13:02:16;;;;;;;0.40;0.40;;;13.70;99.90;;;;;;4969843;29;20236;-80
2022/05/27 13:04:51;;;;;;;0.40;0.40;;;13.70;99.90;;;;;;4949076;29;20247;-79
2022/05/27 13:07:37;;;;;;;0.43;0.43;;;13.80;99.90;;;;;;4960633;29;20192;-78
2022/05/27 13:10:18;;;;;;;0.40;0.40;;;14.10;99.90;;;;;;4941071;29;20200;-77
2022/05/27 13:13:08;;;;;;;0.40;0.40;;;14.40;99.90;;;;;;4939530;29;20299;-77
2022/05/27 13:15:53;;;;;;;0.40;0.40;;;14.80;99.90;;;;;;4952626;28;20622;-79
2022/05/27 13:18:33;;;;;;;0.30;0.30;;;15.00;99.90;;;;;;4975162;28;20208;-79
2022/05/27 13:21:31;;;;;;;0.40;0.40;;;15.10;99.90;;;;;;4975837;28;20694;-76
2022/05/27 13:24:00;;;;;;;0.40;0.40;;;14.70;99.90;;;;;;4973938;28;20206;-77
2022/05/27 13:26:45;;;;;;;0.40;0.40;;;14.20;99.90;;;;;;5034183;28;20272;-77
2022/05/27 13:29:35;;;;;;;0.40;0.40;;;14.00;99.90;;;;;;5036131;28;20562;-76
2022/05/27 13:32:19;;;;;;;0.55;0.55;;;13.90;99.90;;;;;;5034322;28;20198;-76
2022/05/27 13:34:56;;;;;;;0.50;0.50;;;13.80;99.90;;;;;;5034526;28;20248;-78
2022/05/27 13:40:46;;;;;;;0.40;0.40;;;14.20;99.90;;;;;;5039919;28;20300;-85
2022/05/27 13:43:46;;;;;;;;;;;;;;;;;;;;;
2022/05/27 13:46:27;;;;;;;0.50;0.50;;;14.20;99.90;;;;;;5048127;28;20226;-88
2022/05/27 13:49:44;;;;;;;0.40;0.40;;;14.20;99.90;;;;;;5026603;28;20654;-86
2022/05/27 13:52:34;;;;;;;0.40;0.40;;;14.10;99.90;;;;;;5024045;28;20213;-86
2022/05/27 13:55:27;;;;;;;0.40;0.40;;;13.50;99.90;;;;;;5029608;28;20209;-83
2022/05/27 13:58:29;;;;;;;0.40;0.40;;;13.50;99.90;;;;;;5019339;28;20210;-84
2022/05/27 14:01:03;;;;;;;0.40;0.40;;;13.60;99.90;;;;;;5028394;28;20221;-86
2022/05/27 14:03:37;;;;;;;0.50;0.50;;;13.80;99.90;;;;;;5026877;28;20679;-86
2022/05/27 14:06:04;;;;;;;0.47;0.47;;;13.90;99.90;;;;;;5027763;28;20553;-86
2022/05/27 14:09:10;;;;;;;0.50;0.50;;;13.90;99.90;;;;;;5026410;28;20198;-86
2022/05/27 14:11:56;;;;;;;0.40;0.40;;;13.80;99.90;;;;;;5071648;28;20201;-83
2022/05/27 14:14:29;;;;;;;0.40;0.40;;;13.10;99.90;;;;;;5060956;28;20190;-89
2022/05/27 14:17:24;;;;;;;0.40;0.40;;;13.00;99.90;;;;;;5068008;28;20201;-84
2022/05/27 14:20:05;;;;;;;0.40;0.40;;;13.10;99.90;;;;;;5019077;28;20257;-86
2022/05/27 14:22:43;;;;;;;0.40;0.40;;;13.20;99.90;;;;;;5048883;28;20201;-89
2022/05/27 14:25:28;;;;;;;0.40;0.40;;;13.30;99.90;;;;;;5046518;28;20201;-81
2022/05/27 14:28:03;;;;;;;0.50;0.50;;;12.60;99.90;;;;;;5045221;28;20343;-84
2022/05/27 14:30:35;;;;;;;0.50;0.50;;;12.30;99.90;;;;;;5043487;28;20216;-82
2022/05/27 14:33:02;;;;;;;0.50;0.50;;;12.20;99.90;;;;;;5040181;28;20229;-83
2022/05/27 14:35:32;;;;;;;0.50;0.50;;;12.10;99.90;;;;;;5039655;28;20198;-83
2022/05/27 14:38:10;;;;;;;0.50;0.50;;;12.10;99.90;;;;;;5037357;28;20207;-80
2022/05/27 14:40:46;;;;;;;0.60;0.60;;;12.00;99.90;;;;;;5042082;28;20669;-85
2022/05/27 14:43:36;;;;;;;0.50;0.50;;;12.10;99.90;;;;;;5043329;28;20213;-82
2022/05/27 14:46:17;;;;;;;0.60;0.60;;;12.00;99.90;;;;;;5041812;28;20259;-86
2022/05/27 14:48:58;;;;;;;0.60;0.60;;;11.70;99.90;;;;;;5068472;28;20204;-87
2022/05/27 14:55:07;;;;;;;0.40;0.40;;;12.20;99.90;;;;;;5073520;28;20196;-85
2022/05/27 14:57:36;;;;;;;0.50;0.50;;;11.50;99.90;;;;;;5049275;28;20197;-84
2022/05/27 15:00:04;;;;;;;0.50;0.50;;;12.00;99.90;;;;;;5048261;28;20213;-85
2022/05/27 15:03:24;;;;;;;0.50;0.50;;;12.60;99.90;;;;;;5055166;28;20219;-85